• Join FlightAware (Why Join?)
  • Login
  • US Flag 
04:08PM EDT


 

Airport Tracker/Info


-or-


 

Live Flight TrackerFlight Track Log ✈ BAW747 ✈ 25-Aug-2013 ✈ ENZV / SVG - EGLL / LHR

Flight Track Log - Related Links

Times and Time Zones

All times are in EDT time to prevent confusion due to time zone crossing. See the BAW747 flight status page for this flight to view local times or setup timezone preferences in your user account.

Time Position Orientation Groundspeed Altitude Reporting Facility
EDT Latitude Longitude Course Direction KTS MPH feet Rate Location/Type
02:43PM 58.8900 5.6370 90° East 72 83  Level FlightAware
02:43PM 58.8780 5.6380 178° South 147 169 1,380 Level FlightAware
02:43PM 58.8630 5.6380 180° South 140 161 1,000 2,460 Climbing FlightAware
02:44PM 58.8460 5.6360 183° South 165 190 1,900 2,040 Climbing FlightAware
02:44PM 58.8280 5.6350 182° South 192 221 2,600 2,100 Climbing FlightAware
02:44PM 58.8090 5.6340 182° South 220 253 3,400 2,700 Climbing FlightAware
02:45PM 58.7870 5.6270 189° South 250 288 4,400 3,600 Climbing FlightAware
02:45PM 58.7630 5.6190 190° South 264 304 5,800 4,200 Climbing FlightAware
02:45PM 58.7340 5.6100 189° South 276 318 7,500 3,300 Climbing FlightAware
02:46PM 58.6960 5.5970 190° South 315 362 8,700 2,340 Climbing FlightAware
02:46PM 58.6660 5.5880 189° South 343 395 9,400 2,880 Climbing FlightAware
02:47PM 58.6080 5.5680 190° South 362 417 11,400 3,240 Climbing FlightAware
02:47PM 58.5530 5.5510 189° South 378 435 13,100 3,300 Climbing FlightAware
02:48PM 58.4910 5.5310 190° South 383 441 15,200 3,000 Climbing FlightAware
02:49PM 58.4270 5.5100 190° South 400 460 16,800 2,820 Climbing FlightAware
02:49PM 58.3650 5.4900 190° South 406 467 18,500 2,760 Climbing FlightAware
02:50PM 58.2940 5.4680 189° South 418 481 20,100 2,460 Climbing FlightAware
02:50PM 58.2320 5.4480 190° South 427 491 21,400 2,280 Climbing FlightAware
02:51PM 58.1540 5.4230 190° South 437 503 22,900 2,100 Climbing FlightAware
02:52PM 58.0920 5.4080 187° South 446 513 23,900 1,920 Climbing FlightAware
02:52PM 58.0210 5.3960 185° South 456 525 25,000 1,800 Climbing FlightAware
02:53PM 57.9460 5.3830 185° South 466 536 26,000 1,860 Climbing FlightAware
02:53PM 57.8670 5.3710 185° South 471 542 27,300 2,040 Climbing FlightAware
02:54PM 57.7880 5.3570 185° South 471 542 28,500 1,620 Climbing FlightAware
02:54PM 57.7120 5.3420 186° South 479 551 29,300 1,620 Climbing FlightAware
02:55PM 57.6390 5.3280 186° South 478 550 30,400 2,040 Climbing FlightAware
02:56PM 57.5450 5.3090 186° South 472 543 31,900 1,680 Climbing FlightAware
02:56PM 57.4780 5.2960 186° South 477 549 32,600 1,800 Climbing FlightAware
02:57PM 57.3940 5.2800 186° South 469 540 34,000 2,220 Climbing FlightAware
02:58PM 57.3150 5.2600 188° South 461 531 35,400 1,800 Climbing FlightAware
02:58PM 57.2580 5.2410 190° South 463 533 36,000 1,440 Climbing FlightAware
02:59PM 57.1700 5.2110 190° South 460 529 37,100 1,560 Climbing FlightAware
02:59PM 57.1030 5.1880 191° South 455 524 37,900 720 Climbing FlightAware
03:00PM 57.0270 5.1630 190° South 455 524 38,000 60 Climbing FlightAware
03:00PM 56.9550 5.1330 193° South 457 526 38,000  Level FlightAware
03:01PM 56.8910 5.0990 196° South 458 527 38,000  Level FlightAware
03:01PM 56.8220 5.0630 196° South 459 528 38,000  Level FlightAware
03:02PM 56.7400 5.0210 196° South 459 528 38,000  Level FlightAware
03:03PM 56.6740 4.9860 196° South 460 529 38,000  Level FlightAware
03:03PM 56.6030 4.9500 196° South 460 529 38,000  Level FlightAware
03:04PM 56.5320 4.9130 196° South 461 531 38,000  Level FlightAware
03:04PM 56.4560 4.8740 196° South 460 529 38,000  Level FlightAware
03:05PM 56.3850 4.8380 196° South 461 531 38,000  Level FlightAware
03:06PM 56.3190 4.8040 196° South 462 532 38,000  Level FlightAware
03:06PM 56.3113 4.7982 196° South 1 1 38,000  Level FlightAware UK
03:06PM 56.2430 4.7650 196° South 462 532 38,000  Level FlightAware
03:07PM 56.1720 4.7290 196° South 463 533 38,000  Level FlightAware
03:07PM 56.1150 4.7000 196° South 463 533 38,000  Level FlightAware
03:08PM 56.0250 4.6560 195° South 463 533 38,000  Level FlightAware
03:08PM 55.9650 4.6250 196° South 463 533 38,000  Level FlightAware
03:09PM 55.8870 4.5870 196° South 463 533 38,000  Level FlightAware
03:09PM 55.8795 4.5819 196° South 454 522 38,000  Level FlightAware UK
03:10PM 55.8240 4.5550 196° South 455 524 38,000  Level FlightAware
03:10PM 55.7490 4.5180 196° South 454 522 38,000  Level FlightAware
03:11PM 55.6750 4.4820 195° South 453 521 38,000  Level FlightAware
03:11PM 55.6110 4.4500 196° South 453 521 38,000  Level FlightAware
03:12PM 55.5310 4.4110 196° South 454 522 38,000  Level FlightAware
03:12PM 55.5219 4.4069 196° South 450 518 38,000  Level FlightAware UK
03:13PM 55.4620 4.3780 196° South 454 522 38,000 -180 Level FlightAware
03:13PM 55.4483 4.3706 196° South 452 520 37,900  Descending FlightAware UK
03:13PM 55.3900 4.3430 196° South 464 534 38,000  Climbing FlightAware
03:13PM 55.3747 4.3351 196° South 452 520 37,900 -240 Descending FlightAware UK
03:14PM 55.3126 4.3044 196° South 454 522 37,900 60 Level FlightAware UK
03:14PM 55.2790 4.2890 196° South 464 534 38,000 60 Climbing FlightAware
03:15PM 55.2020 4.2520 196° South 464 534 38,000  Level FlightAware
03:15PM 55.1886 4.2446 196° South 452 520 38,000  Level FlightAware UK
03:15PM 55.1139 4.2091 196° South 452 520 38,000  Level FlightAware UK
03:15PM 55.1200 4.2130 196° South 465 535 38,000  Level FlightAware
03:16PM 55.0550 4.1810 196° South 466 536 38,000  Level FlightAware
03:16PM 54.9800 4.1460 195° South 467 537 38,000  Level FlightAware
03:17PM 54.9025 4.1084 195° South 452 520 38,000  Level FlightAware UK
03:17PM 54.9030 4.1100 195° South 468 539 38,000  Level FlightAware
03:18PM 54.8200 4.0700 196° South 469 540 38,000  Level FlightAware
03:18PM 54.7600 4.0420 195° South 469 540 38,000  Level FlightAware
03:19PM 54.6770 4.0030 195° South 470 541 38,000  Level FlightAware
03:20PM 54.5960 3.9660 195° South 472 543 38,000  Level FlightAware
03:20PM 54.5754 3.9556 195° South 454 522 38,000  Level FlightAware UK
03:20PM 54.5120 3.9266 195° South 454 522 38,000  Level FlightAware UK
03:20PM 54.5230 3.9320 195° South 472 543 38,000  Level FlightAware
03:21PM 54.4390 3.8930 195° South 473 544 38,000  Level FlightAware
03:21PM 54.3530 3.8540 195° South 473 544 38,000  Level FlightAware
03:22PM 54.2844 3.8220 195° South 454 522 38,000  Level FlightAware UK
03:22PM 54.2870 3.8230 195° South 472 543 38,000  Level FlightAware
03:22PM 54.2200 3.7920 195° South 473 544 38,000  Level FlightAware
03:23PM 54.2090 3.7873 195° South 452 520 38,000  Level FlightAware UK
03:23PM 54.1455 3.7578 195° South 448 516 38,000  Level FlightAware UK
03:23PM 54.1430 3.7560 195° South 470 541 38,000  Level FlightAware
03:24PM 54.0720 3.7240 195° South 470 541 38,000  Level FlightAware
03:24PM 54.0000 3.6920 195° South 473 544 38,000  Level FlightAware
03:25PM 53.9300 3.6620 194° South 476 548 38,000  Level FlightAware
03:25PM 53.8450 3.6250 194° South 478 550 38,000 -240 Level FlightAware
03:26PM 53.7630 3.5890 195° South 479 551 37,700 -780 Descending FlightAware
03:27PM 53.6877 3.5552 195° South 446 513 37,100 -960 Descending FlightAware UK
03:27PM 53.6940 3.5570 195° South 475 547 37,200 -1,020 Climbing FlightAware
03:27PM 53.6243 3.5237 195° South 446 513 36,600 -1,020 Descending FlightAware UK
03:27PM 53.6220 3.5210 195° South 481 554 36,600 -720 Level FlightAware
03:28PM 53.5470 3.4660 204° Southwest 487 560 36,100 -540 Descending FlightAware
03:28PM 53.4780 3.3950 211° Southwest 492 566 36,000 -120 Descending FlightAware
03:29PM 53.4190 3.3320 212° Southwest 491 565 36,000  Level FlightAware
03:29PM 53.3545 3.2637 212° Southwest 448 516 36,000  Level FlightAware UK
03:30PM 53.3460 3.2580 212° Southwest 488 562 36,000  Level FlightAware
03:30PM 53.2820 3.2120 203° Southwest 484 557 36,000  Level FlightAware
03:31PM 53.2100 3.1620 203° Southwest 475 547 36,000  Level FlightAware
03:31PM 53.1318 3.1082 203° Southwest 446 513 36,000  Level FlightAware UK
03:31PM 53.1410 3.1140 203° Southwest 475 547 36,000 -180 Level FlightAware
03:32PM 53.0582 3.0574 203° Southwest 446 513 35,900  Descending FlightAware UK
03:32PM 53.0530 3.0540 203° Southwest 483 556 36,000 -300 Climbing FlightAware
03:33PM 52.9730 2.9990 202° Southwest 484 557 35,700 -660 Descending FlightAware
03:33PM 52.8990 2.9500 202° Southwest 487 560 35,200 -960 Descending FlightAware
03:34PM 52.8270 2.9030 202° Southwest 485 558 34,600 -1,020 Descending FlightAware
03:34PM 52.7650 2.8630 201° Southwest 483 556 34,100 -960 Descending FlightAware
03:35PM 52.6940 2.8170 201° Southwest 486 559 33,600 -1,020 Descending FlightAware
03:35PM 52.6110 2.7640 201° Southwest 483 556 32,900 -1,200 Descending FlightAware
03:36PM 52.5959 2.7536 201° Southwest 452 520 32,800 -1,020 Descending FlightAware UK
03:36PM 52.5310 2.7130 201° Southwest 484 557 32,300 -1,020 Descending FlightAware
03:37PM 52.4559 2.6656 201° Southwest 454 522 31,700 -1,200 Descending FlightAware UK
03:37PM 52.4390 2.6590 201° Southwest 483 556 31,500 -840 Descending FlightAware
03:37PM 52.3690 2.6260 196° South 450 518 31,100 -1,260 Descending FlightAware
03:38PM 52.3010 2.5930 197° South 425 489 30,100 -960 Descending FlightAware
03:39PM 52.2350 2.5610 197° South 430 495 30,000 -420 Descending FlightAware
03:39PM 52.1831 2.5366 196° South 426 490 29,700 -1,320 Descending FlightAware ADS-B
03:40PM 52.1065 2.4996 196° South 388 447 28,600 -1,620 Descending FlightAware UK
03:40PM 52.1090 2.5010 196° South 414 476 28,600 -1,860 Level FlightAware
03:40PM 52.0415 2.4688 196° South 382 440 27,500 -1,680 Descending FlightAware UK
03:40PM 52.0450 2.4710 196° South 409 471 27,600 -1,620 Climbing FlightAware
03:41PM 51.9800 2.4410 196° South 401 461 26,500 -1,380 Descending FlightAware
03:41PM 51.9130 2.4100 196° South 401 461 26,000 -540 Descending FlightAware
03:42PM 51.8497 2.3732 196° South 374 430 25,900  Descending FlightAware UK
03:42PM 51.8540 2.3780 196° South 402 463 26,000 -420 Climbing FlightAware
03:43PM 51.8140 2.3200 222° Southwest 399 459 25,700 -660 Descending FlightAware
03:43PM 51.8000 2.2740 244° Southwest 394 453 25,500 -600 Descending FlightAware
03:43PM 51.7900 2.1700 261° West 389 448 25,200 -540 Descending FlightAware
03:44PM 51.7848 2.1066 262° West 389 448 25,000 -240 Descending FlightAware ADS-B
03:44PM 51.7767 1.9966 263° West 390 449 25,000  Level FlightAware ADS-B
03:45PM 51.7703 1.9096 263° West 390 449 25,000 -600 Level FlightAware ADS-B
03:45PM 51.7628 1.8085 263° West 394 453 24,400 -1,800 Descending FlightAware ADS-B
03:46PM 51.7561 1.7194 263° West 401 461 23,100 -2,460 Descending FlightAware ADS-B
03:46PM 51.7491 1.6303 263° West 390 449 21,900 -2,340 Descending FlightAware ADS-B
03:47PM 51.7429 1.5383 264° West 380 437 20,700 -1,920 Descending FlightAware ADS-B
03:48PM 51.7374 1.4497 264° West 375 432 19,900 -1,500 Descending FlightAware ADS-B
03:48PM 51.7312 1.3537 264° West 359 413 19,000 -1,620 Descending FlightAware ADS-B
03:49PM 51.7256 1.2703 264° West 358 412 18,100 -1,560 Descending FlightAware ADS-B
03:49PM 51.7206 1.1926 264° West 347 399 17,400 -1,500 Descending FlightAware ADS-B
03:50PM 51.7148 1.1061 264° West 341 392 16,500 -1,620 Descending FlightAware ADS-B
03:51PM 51.7070 0.9901 264° West 310 357 15,300 -1,440 Descending FlightAware UK
03:51PM 51.7070 0.9930 264° West 333 383 15,400 -960 Climbing FlightAware
03:51PM 51.7027 0.9310 264° West 332 382 14,900 -1,020 Descending FlightAware ADS-B
03:52PM 51.6944 0.8109 264° West 336 387 14,200 -780 Descending FlightAware ADS-B
03:52PM 51.6893 0.7368 264° West 318 366 13,900 -720 Descending FlightAware ADS-B
03:53PM 51.6844 0.6675 264° West 298 343 13,500 -1,020 Descending FlightAware ADS-B
03:53PM 51.6798 0.6011 264° West 294 338 12,900 -1,080 Descending FlightAware ADS-B
03:54PM 51.6768 0.5602 263° West 290 334 12,600 -1,380 Descending FlightAware ADS-B
03:54PM 51.6721 0.4954 263° West 291 335 11,800 -1,320 Descending FlightAware ADS-B
03:55PM 51.6674 0.4314 263° West 284 327 11,300 -1,200 Descending FlightAware ADS-B
03:55PM 51.6624 0.3649 263° West 278 320 10,600 -1,320 Descending FlightAware ADS-B
03:56PM 51.6581 0.3091 263° West 272 313 10,000 -1,500 Descending FlightAware ADS-B
03:56PM 51.6557 0.2743 264° West 272 313 9,500 -1,620 Descending FlightAware ADS-B
03:56PM 51.6532 0.2401 263° West 273 314 9,100 -1,560 Descending FlightAware ADS-B
03:56PM 51.6504 0.2042 263° West 275 316 8,600 -1,500 Descending FlightAware ADS-B
03:57PM 51.6480 0.1729 263° West 275 316 8,300 -960 Descending FlightAware ADS-B
03:57PM 51.6455 0.1393 263° West 274 315 8,100 -600 Descending FlightAware ADS-B
03:57PM 51.6441 0.1116 265° West 277 319 8,000 -240 Descending FlightAware ADS-B
03:57PM 51.6429 0.0788 267° West 276 318 8,000  Level FlightAware ADS-B
03:58PM 51.6417 0.0440 267° West 275 316 8,000  Level FlightAware ADS-B
03:58PM 51.6405 0.0114 267° West 274 315 8,000  Level FlightAware ADS-B
03:58PM 51.6394 -0.0198 267° West 274 315 8,000  Level FlightAware ADS-B
03:59PM 51.6382 -0.0516 267° West 275 316 8,000 -240 Level FlightAware ADS-B
03:59PM 51.6372 -0.0772 266° West 275 316 7,900 -480 Descending FlightAware ADS-B
03:59PM 51.6362 -0.1024 266° West 274 315 7,800 -660 Descending FlightAware ADS-B
03:59PM 51.6348 -0.1348 266° West 274 315 7,600 -780 Descending FlightAware ADS-B
04:00PM 51.6335 -0.1661 266° West 275 316 7,400 -780 Descending FlightAware ADS-B
04:00PM 51.6323 -0.1970 266° West 274 315 7,200 -600 Descending FlightAware ADS-B
04:00PM 51.6309 -0.2277 266° West 272 313 7,100 -420 Descending FlightAware ADS-B
04:00PM 51.6295 -0.2582 266° West 271 312 7,000 -180 Descending FlightAware ADS-B
04:01PM 51.6278 -0.2951 266° West 271 312 7,000  Level FlightAware ADS-B
04:01PM 51.6266 -0.3204 266° West 270 311 7,000  Level FlightAware ADS-B
04:01PM 51.6252 -0.3506 266° West 269 310 7,000  Level FlightAware ADS-B
04:01PM 51.6238 -0.3813 266° West 269 310 7,000  Level FlightAware ADS-B
04:02PM 51.6225 -0.4126 266° West 268 308 7,000  Level FlightAware ADS-B
04:02PM 51.6211 -0.4440 266° West 269 310 7,000  Level FlightAware ADS-B
04:02PM 51.6197 -0.4754 266° West 268 308 7,000  Level FlightAware ADS-B
04:02PM 51.6184 -0.5022 266° West 267 307 7,000  Level FlightAware ADS-B
04:02PM 51.6176 -0.5129 263° West 268 308 7,000 -480 Level FlightAware ADS-B
04:03PM 51.6157 -0.5285 259° West 269 310 6,900 -1,020 Descending FlightAware ADS-B
04:03PM 51.6113 -0.5584 257° West 267 307 6,600 -1,020 Descending FlightAware ADS-B
04:03PM 51.6068 -0.5874 256° West 264 304 6,400 -600 Descending FlightAware ADS-B
04:03PM 51.6023 -0.6165 256° West 263 303 6,300 -420 Descending FlightAware ADS-B
04:04PM 51.5978 -0.6466 256° West 265 305 6,200 -540 Descending FlightAware ADS-B
04:04PM 51.5957 -0.6599 256° West 266 306 6,100 -900 Descending FlightAware ADS-B
04:04PM 51.5934 -0.6721 253° West 266 306 6,000 -540 Descending FlightAware ADS-B
04:04PM 51.5910 -0.6828 250° West 267 307 6,000 -600 Level FlightAware ADS-B
04:04PM 51.5836 -0.7117 248° West 267 307 5,800 -600 Descending FlightAware ADS-B
04:04PM 51.5762 -0.7394 247° West 266 306 5,700 -420 Descending FlightAware ADS-B
04:05PM 51.5691 -0.7665 247° West 262 302 5,600 -420 Descending FlightAware ADS-B
04:05PM 51.5621 -0.7927 247° West 251 289 5,500 -240 Descending FlightAware ADS-B
04:05PM 51.5552 -0.8191 247° West 239 275 5,500 -240 Level FlightAware ADS-B
04:05PM 51.5487 -0.8434 247° West 226 260 5,400 -540 Descending FlightAware ADS-B
04:06PM 51.5453 -0.8560 247° West 227 261 5,300 -600 Descending FlightAware ADS-B
04:06PM 51.5436 -0.8614 243° Southwest 226 260 5,300 -1,020 Level FlightAware ADS-B
04:06PM 51.5420 -0.8657 239° Southwest 224 258 5,200 -900 Descending FlightAware ADS-B
04:06PM 51.5398 -0.8701 231° Southwest 223 257 5,200 -900 Level FlightAware ADS-B
04:06PM 51.5373 -0.8740 225° Southwest 221 254 5,100 -780 Descending FlightAware ADS-B
04:06PM 51.5329 -0.8788 214° Southwest 218 251 5,100 -720 Level FlightAware ADS-B
04:06PM 51.5297 -0.8812 205° Southwest 216 249 5,000 -780 Descending FlightAware ADS-B
04:06PM 51.5261 -0.8830 197° South 213 245 5,000  Level FlightAware ADS-B
04:06PM 51.5226 -0.8839 190° South 210 242 5,000 -1,020 Level FlightAware ADS-B
04:06PM 51.5197 -0.8844 186° South 209 241 4,900 -1,020 Descending FlightAware ADS-B
04:06PM 51.5168 -0.8846 183° South 207 238 4,900  Level FlightAware ADS-B
04:06PM 51.5136 -0.8843 176° South 205 236 4,900 -900 Level FlightAware ADS-B
04:06PM 51.5107 -0.8833 168° South 202 232 4,800 -900 Descending FlightAware ADS-B
04:06PM 51.5074 -0.8813 160° South 199 229 4,800 -900 Level FlightAware ADS-B
04:06PM 51.5047 -0.8790 151° Southeast 197 227 4,700 -900 Descending FlightAware ADS-B
04:06PM 51.5020 -0.8756 142° Southeast 194 223 4,700 -720 Level FlightAware ADS-B
04:07PM 51.4991 -0.8710 135° Southeast 193 222 4,600 -900 Descending FlightAware ADS-B
04:07PM 51.4899 -0.8531 130° Southeast 193 222 4,400 -1,020 Descending FlightAware ADS-B
04:07PM 51.4815 -0.8356 128° Southeast 193 222 4,100 -1,200 Descending FlightAware ADS-B
04:07PM 51.4788 -0.8290 123° Southeast 190 219 4,000 -720 Descending FlightAware ADS-B
04:07PM 51.4778 -0.8251 112° Southeast 188 216 4,000 -1,020 Level FlightAware ADS-B
04:07PM 51.4771 -0.8208 105° East 185 213 3,900 -1,020 Descending FlightAware ADS-B
04:07PM 51.4768 -0.8168 97° East 184 212 3,900 -1,020 Level FlightAware ADS-B
04:07PM 51.4766 -0.8122 94° East 183 211 3,800 -960 Descending FlightAware ADS-B
04:08PM 51.4763 -0.7912 91° East 182 209 3,600 -720 Descending FlightAware ADS-B
04:08PM 51.4763 -0.7780 90° East 181 208 3,500 -600 Descending FlightAware ADS-B
04:08PM 51.4762 -0.7646 91° East 174 200 3,400 -720 Descending FlightAware ADS-B
04:08PM 51.4763 -0.7541 89° East 171 197 3,300 -840 Descending FlightAware ADS-B
04:08PM 51.4763 -0.7373 90° East 169 194 3,100 -1,200 Descending FlightAware ADS-B
04:08PM 51.4764 -0.7275 89° East 168 193 2,900 -1,080 Descending FlightAware ADS-B
04:09PM 51.4765 -0.7086 90° East 166 191 2,700 -780 Descending FlightAware ADS-B
04:09PM 51.4766 -0.6901 89° East 164 189 2,500 -900 Descending FlightAware ADS-B
04:09PM 51.4767 -0.6743 89° East 162 186 2,300 -900 Descending FlightAware ADS-B
04:09PM 51.4768 -0.6561 89° East 158 182 2,100 -1,020 Descending FlightAware ADS-B
04:10PM 51.4769 -0.6384 89° East 157 181 1,800 -960 Descending FlightAware ADS-B
04:10PM 51.4770 -0.6194 90° East 155 178 1,600 -780 Descending FlightAware ADS-B
04:10PM 51.4770 -0.6022 90° East 155 178 1,400 -840 Descending FlightAware ADS-B
04:11PM 51.4772 -0.5630 90° East 132 152 900 -600 Descending FlightAware UK
04:11PM 51.4770 -0.5480 90° East 116 133 800 -480 Descending FlightAware
04:11PM 51.4770 -0.5290 90° East 117 135 600 -720 Descending FlightAware
04:12PM 51.4770 -0.5100 90° East 116 133 300 -660 Descending FlightAware
04:12PM 51.4770 -0.4880 90° East 120 138 100 -540 Descending FlightAware
04:13PM 51.4770 -0.4630 90° East 120 138 -240 Descending FlightAware
04:15PM 51.4775 -0.4614 64° Northeast  Level Estimated
04:16PM 51.4775 -0.4614 90° East  Level Estimated
04:17PM 51.4775 -0.4614 90° East  Level Estimated
04:18PM 51.4775 -0.4614 90° East  Level Estimated
04:19PM 51.4775 -0.4614 90° East  Level Estimated
04:20PM 51.4775 -0.4614 90° East  Level Estimated
04:21PM 51.4775 -0.4614 90° East  Level Estimated
04:22PM 51.4775 -0.4614 90° East  Level Estimated
04:23PM 51.4775 -0.4614 90° East  Level Estimated
04:24PM 51.4775 -0.4614 90° East  Level Estimated
04:25PM 51.4775 -0.4614 90° East  Level Estimated